createdAt,value
2022-10-20T00:02:12.392Z,5.07
2022-10-20T00:07:34.283Z,4.85
2022-10-20T00:12:56.142Z,4.57
2022-10-20T00:18:18.116Z,5.18
2022-10-20T00:23:40.031Z,7.28
2022-10-20T00:29:03.754Z,5.63
2022-10-20T00:34:25.635Z,4.80
2022-10-20T00:39:47.505Z,7.45
2022-10-20T00:45:14.091Z,5.88
2022-10-20T00:56:02.003Z,7.35
2022-10-20T01:01:24.470Z,6.95
2022-10-20T01:06:46.389Z,7.55
2022-10-20T01:12:19.992Z,10.18
2022-10-20T01:18:12.150Z,10.35
2022-10-20T01:24:09.364Z,10.02
2022-10-20T01:29:40.081Z,11.95
2022-10-20T01:35:10.325Z,8.75
2022-10-20T01:40:43.607Z,6.47
2022-10-20T01:46:07.973Z,9.70
2022-10-20T01:51:30.075Z,14.52
2022-10-20T01:57:29.055Z,10.52
2022-10-20T02:03:21.200Z,5.95
2022-10-20T02:08:45.692Z,6.90
2022-10-20T02:14:11.687Z,10.93
2022-10-20T02:19:40.694Z,9.30
2022-10-20T02:25:03.246Z,11.45
2022-10-20T02:30:25.379Z,9.55
2022-10-20T02:35:55.990Z,7.72
2022-10-20T02:41:17.837Z,11.40
2022-10-20T02:46:39.700Z,10.75
2022-10-20T02:52:01.866Z,11.30
2022-10-20T02:57:23.726Z,8.63
2022-10-20T03:02:45.805Z,10.07
2022-10-20T03:08:07.935Z,8.75
2022-10-20T03:19:00.027Z,10.10
2022-10-20T03:24:25.473Z,9.70
2022-10-20T03:29:47.309Z,9.25
2022-10-20T03:35:09.638Z,7.80
2022-10-20T03:40:31.545Z,10.23
2022-10-20T03:46:05.058Z,10.50
2022-10-20T03:51:26.940Z,12.40
2022-10-20T03:56:48.784Z,16.88
2022-10-20T04:02:42.162Z,29.70
2022-10-20T04:08:04.240Z,45.78
2022-10-20T04:13:26.124Z,52.13
2022-10-20T04:18:48.533Z,56.22
2022-10-20T04:24:10.377Z,57.83
2022-10-20T04:29:32.310Z,48.67
2022-10-20T04:34:54.155Z,52.60
2022-10-20T04:40:16.106Z,31.15
2022-10-20T04:45:37.944Z,27.02
2022-10-20T04:51:11.053Z,21.35
2022-10-20T04:56:32.937Z,16.02
2022-10-20T05:01:54.802Z,14.35
2022-10-20T05:07:16.701Z,13.82
2022-10-20T05:12:38.855Z,17.00
2022-10-20T05:18:00.889Z,15.15
2022-10-20T05:23:22.743Z,12.52
2022-10-20T05:28:47.809Z,14.27
2022-10-20T05:34:11.033Z,13.32
2022-10-20T05:39:32.909Z,11.82
2022-10-20T05:44:54.741Z,13.05
2022-10-20T05:50:16.705Z,15.73
2022-10-20T05:55:38.556Z,14.73
2022-10-20T06:01:08.489Z,9.75
2022-10-20T06:06:31.170Z,11.07
2022-10-20T06:17:49.138Z,12.65
2022-10-20T06:23:11.069Z,11.02
2022-10-20T06:28:34.629Z,12.13
2022-10-20T06:33:57.657Z,11.60
2022-10-20T06:39:22.144Z,13.60
2022-10-20T06:44:44.053Z,14.45
2022-10-20T06:50:06.660Z,16.15
2022-10-20T06:55:28.687Z,16.52
2022-10-20T07:01:08.314Z,12.30
2022-10-20T07:06:35.350Z,18.95
2022-10-20T07:11:57.224Z,16.00
2022-10-20T07:17:19.191Z,13.95
2022-10-20T07:22:41.122Z,14.60
2022-10-20T07:28:03.022Z,12.02
2022-10-20T07:33:25.100Z,14.20
2022-10-20T07:38:48.165Z,14.27
2022-10-20T07:44:10.081Z,11.95
2022-10-20T07:49:44.086Z,13.23
2022-10-20T07:55:17.679Z,19.10
2022-10-20T08:00:46.009Z,12.40
2022-10-20T08:06:07.920Z,13.32
2022-10-20T08:11:29.734Z,16.02
2022-10-20T08:16:53.740Z,13.90
2022-10-20T08:22:16.040Z,12.45
2022-10-20T08:27:37.875Z,14.68
2022-10-20T08:32:59.875Z,12.38
2022-10-20T08:38:21.681Z,13.23
2022-10-20T08:43:43.778Z,7.68
2022-10-20T08:49:12.318Z,13.38
2022-10-20T08:54:34.588Z,16.30
2022-10-20T09:00:09.083Z,16.20
2022-10-20T09:05:34.658Z,15.55
2022-10-20T09:10:56.730Z,15.57
2022-10-20T09:16:41.759Z,11.43
2022-10-20T09:22:13.738Z,13.45
2022-10-20T09:27:38.245Z,11.25
2022-10-20T09:33:01.037Z,10.65
2022-10-20T09:38:27.792Z,6.43
2022-10-20T09:43:57.129Z,4.10
2022-10-20T09:49:33.379Z,5.57
2022-10-20T09:55:00.473Z,2.83
2022-10-20T10:00:43.323Z,4.10
2022-10-20T10:06:20.468Z,4.15
2022-10-20T10:11:42.351Z,3.60
2022-10-20T10:17:04.358Z,7.07
2022-10-20T10:22:26.730Z,4.95
2022-10-20T10:28:00.775Z,8.55
2022-10-20T10:33:28.324Z,8.05
2022-10-20T10:38:50.154Z,5.65
2022-10-20T10:44:22.915Z,5.20
2022-10-20T10:50:13.176Z,2.50
2022-10-20T10:55:49.313Z,2.40
2022-10-20T11:02:00.235Z,3.88
2022-10-20T11:07:49.703Z,5.93
2022-10-20T11:13:31.185Z,2.05
2022-10-20T11:19:33.242Z,3.15
2022-10-20T11:25:04.079Z,2.67
2022-10-20T11:30:26.499Z,4.43
2022-10-20T11:35:54.410Z,4.15
2022-10-20T11:41:20.471Z,4.32
2022-10-20T11:46:47.610Z,3.50
2022-10-20T11:52:45.613Z,3.15
2022-10-20T11:58:19.632Z,3.40
2022-10-20T12:04:02.298Z,3.00
2022-10-20T12:09:45.384Z,1.88
2022-10-20T12:15:24.717Z,2.38
2022-10-20T12:20:52.518Z,1.17
2022-10-20T12:27:01.682Z,2.70
2022-10-20T12:32:29.539Z,3.33
2022-10-20T12:37:57.095Z,2.03
2022-10-20T12:43:28.795Z,2.20
2022-10-20T12:48:54.259Z,2.38
2022-10-20T12:54:38.167Z,2.15
2022-10-20T13:00:00.047Z,2.38
2022-10-20T13:05:44.759Z,4.32
2022-10-20T13:11:37.423Z,3.33
2022-10-20T13:17:24.063Z,3.67
2022-10-20T13:22:49.765Z,2.08
2022-10-20T13:28:16.169Z,3.65
2022-10-20T13:34:03.244Z,4.55
2022-10-20T13:39:48.085Z,6.30
2022-10-20T13:45:21.896Z,5.65
2022-10-20T13:50:56.756Z,3.17
2022-10-20T13:56:34.873Z,5.25
2022-10-20T14:02:21.705Z,6.03
2022-10-20T14:07:44.504Z,3.67
2022-10-20T14:13:14.547Z,7.22
2022-10-20T14:18:36.856Z,3.92
2022-10-20T14:24:03.010Z,5.05
2022-10-20T14:29:28.069Z,7.70
2022-10-20T14:35:04.365Z,5.88
2022-10-20T14:40:32.884Z,5.25
2022-10-20T14:45:57.933Z,5.60
2022-10-20T14:51:41.224Z,5.45
2022-10-20T14:57:25.626Z,9.02
2022-10-20T15:02:48.327Z,6.13
2022-10-20T15:08:30.435Z,5.22
2022-10-20T15:13:55.172Z,6.35
2022-10-20T15:19:28.724Z,8.18
2022-10-20T15:24:50.592Z,7.70
2022-10-20T15:30:21.639Z,8.35
2022-10-20T15:35:43.486Z,7.32
2022-10-20T15:41:05.705Z,8.13
2022-10-20T15:46:27.580Z,19.17
2022-10-20T15:51:49.856Z,11.05
2022-10-20T15:57:11.755Z,7.05
2022-10-20T16:02:33.607Z,10.68
2022-10-20T16:07:55.750Z,10.40
2022-10-20T16:13:17.653Z,7.28
2022-10-20T16:18:39.777Z,5.20
2022-10-20T16:24:01.647Z,7.05
2022-10-20T16:29:23.464Z,6.95
2022-10-20T16:34:45.371Z,6.50
2022-10-20T16:40:07.777Z,5.15
2022-10-20T16:45:29.649Z,8.73
2022-10-20T16:50:51.496Z,6.25
2022-10-20T16:56:16.649Z,6.88
2022-10-20T17:01:41.799Z,8.35
2022-10-20T17:07:03.806Z,5.88
2022-10-20T17:12:25.762Z,7.03
2022-10-20T17:17:47.597Z,9.10
2022-10-20T17:23:09.414Z,8.05
2022-10-20T17:28:32.842Z,7.18
2022-10-20T17:33:55.315Z,9.45
2022-10-20T17:39:17.149Z,7.90
2022-10-20T17:44:39.054Z,9.18
2022-10-20T17:50:00.952Z,20.30
2022-10-20T17:55:22.804Z,10.77
2022-10-20T18:00:55.901Z,10.27
2022-10-20T18:06:21.953Z,11.32
2022-10-20T18:11:47.993Z,11.98
2022-10-20T18:17:09.824Z,15.00
2022-10-20T18:22:31.861Z,10.85
2022-10-20T18:27:53.803Z,12.43
2022-10-20T18:33:15.617Z,13.82
2022-10-20T18:38:39.505Z,11.82
2022-10-20T18:44:02.021Z,14.13
2022-10-20T18:49:24.148Z,15.60
2022-10-20T18:54:46.008Z,15.25
2022-10-20T19:00:09.074Z,16.55
2022-10-20T19:05:30.945Z,20.58
2022-10-20T19:10:53.136Z,17.35
2022-10-20T19:16:17.879Z,17.25
2022-10-20T19:21:39.933Z,26.10
2022-10-20T19:27:25.086Z,19.60
2022-10-20T19:32:44.209Z,23.02
2022-10-20T19:38:06.366Z,24.40
2022-10-20T19:43:28.244Z,26.33
2022-10-20T19:48:50.762Z,27.58
2022-10-20T19:54:12.973Z,30.92
2022-10-20T19:59:34.826Z,30.30
2022-10-20T20:04:56.730Z,31.83
2022-10-20T20:10:18.631Z,30.85
2022-10-20T20:15:40.445Z,27.88
2022-10-20T20:21:05.225Z,32.85
2022-10-20T20:26:29.794Z,37.80
2022-10-20T20:31:51.739Z,32.88
2022-10-20T20:37:13.599Z,31.67
2022-10-20T20:42:35.539Z,33.88
2022-10-20T20:47:58.175Z,30.55
2022-10-20T20:53:20.294Z,29.48
2022-10-20T20:58:43.113Z,31.42
2022-10-20T21:04:06.291Z,33.97
2022-10-20T21:09:28.249Z,35.00
2022-10-20T21:14:50.127Z,39.22
2022-10-20T21:20:12.255Z,41.25
2022-10-20T21:25:34.094Z,38.90
2022-10-20T21:30:58.727Z,40.53
2022-10-20T21:36:24.174Z,39.20
2022-10-20T21:41:46.161Z,42.15
2022-10-20T21:47:08.000Z,42.83
2022-10-20T21:52:29.809Z,38.72
2022-10-20T21:57:51.603Z,41.05
2022-10-20T22:03:13.501Z,40.60
2022-10-20T22:08:37.340Z,36.25
2022-10-20T22:13:59.592Z,39.00
2022-10-20T22:19:23.188Z,35.75
2022-10-20T22:24:45.026Z,37.63
2022-10-20T22:30:07.649Z,36.83
2022-10-20T22:35:29.537Z,32.45
2022-10-20T22:40:51.374Z,35.90
2022-10-20T22:46:13.417Z,34.00
2022-10-20T22:51:35.247Z,31.40
2022-10-20T22:56:57.084Z,31.23
2022-10-20T23:02:18.915Z,26.83
2022-10-20T23:07:41.068Z,28.70
2022-10-20T23:13:03.140Z,25.55
2022-10-20T23:18:24.974Z,31.90
2022-10-20T23:23:46.876Z,25.58
2022-10-20T23:29:09.008Z,29.13
2022-10-20T23:34:31.204Z,30.50
2022-10-20T23:39:53.095Z,27.80
2022-10-20T23:45:15.004Z,28.80
2022-10-20T23:50:36.809Z,27.75
2022-10-20T23:55:58.693Z,25.63
